sensor_id;sensor_type;location;lat;lon;timestamp;temperature;humidity
44435;DHT22;30138;20.964;105.830;2023-05-21T00:03:37;27.70;78.60
44435;DHT22;30138;20.964;105.830;2023-05-21T00:08:44;27.60;74.90
44435;DHT22;30138;20.964;105.830;2023-05-21T00:13:51;27.70;83.90
44435;DHT22;30138;20.964;105.830;2023-05-21T00:18:59;27.80;89.40
44435;DHT22;30138;20.964;105.830;2023-05-21T00:24:06;27.80;79.50
44435;DHT22;30138;20.964;105.830;2023-05-21T00:29:13;27.70;77.40
44435;DHT22;30138;20.964;105.830;2023-05-21T00:34:23;27.70;85.80
44435;DHT22;30138;20.964;105.830;2023-05-21T00:39:30;27.80;84.10
44435;DHT22;30138;20.964;105.830;2023-05-21T00:44:36;27.70;71.00
44435;DHT22;30138;20.964;105.830;2023-05-21T00:49:44;27.70;78.90
44435;DHT22;30138;20.964;105.830;2023-05-21T00:54:53;27.70;86.40
44435;DHT22;30138;20.964;105.830;2023-05-21T01:00:00;27.80;84.60
44435;DHT22;30138;20.964;105.830;2023-05-21T01:05:10;27.70;71.10
44435;DHT22;30138;20.964;105.830;2023-05-21T01:10:17;27.70;80.20
44435;DHT22;30138;20.964;105.830;2023-05-21T01:15:23;27.80;87.60
44435;DHT22;30138;20.964;105.830;2023-05-21T01:20:32;27.70;76.20
44435;DHT22;30138;20.964;105.830;2023-05-21T01:25:41;27.70;78.60
44435;DHT22;30138;20.964;105.830;2023-05-21T01:30:48;27.80;86.70
44435;DHT22;30138;20.964;105.830;2023-05-21T01:35:59;27.70;74.10
44435;DHT22;30138;20.964;105.830;2023-05-21T01:41:11;27.70;78.90
44435;DHT22;30138;20.964;105.830;2023-05-21T01:46:21;27.70;86.60
44435;DHT22;30138;20.964;105.830;2023-05-21T01:51:29;27.80;83.30
44435;DHT22;30138;20.964;105.830;2023-05-21T01:56:37;27.70;74.20
44435;DHT22;30138;20.964;105.830;2023-05-21T02:01:43;27.70;84.10
44435;DHT22;30138;20.964;105.830;2023-05-21T02:06:52;27.80;80.50
44435;DHT22;30138;20.964;105.830;2023-05-21T02:12:00;27.70;69.00
44435;DHT22;30138;20.964;105.830;2023-05-21T02:17:07;27.70;79.90
44435;DHT22;30138;20.964;105.830;2023-05-21T02:22:13;27.80;87.00
44435;DHT22;30138;20.964;105.830;2023-05-21T02:27:22;27.80;79.00
44435;DHT22;30138;20.964;105.830;2023-05-21T02:32:34;27.70;72.10
44435;DHT22;30138;20.964;105.830;2023-05-21T02:37:41;27.70;82.60
44435;DHT22;30138;20.964;105.830;2023-05-21T02:42:49;27.80;87.40
44435;DHT22;30138;20.964;105.830;2023-05-21T02:47:57;27.80;73.30
44435;DHT22;30138;20.964;105.830;2023-05-21T02:53:10;27.70;78.10
44435;DHT22;30138;20.964;105.830;2023-05-21T02:58:18;27.80;82.10
44435;DHT22;30138;20.964;105.830;2023-05-21T03:03:25;27.70;69.90
44435;DHT22;30138;20.964;105.830;2023-05-21T03:08:32;27.70;80.30
44435;DHT22;30138;20.964;105.830;2023-05-21T03:13:44;27.80;78.60
44435;DHT22;30138;20.964;105.830;2023-05-21T03:18:50;27.70;67.20
44435;DHT22;30138;20.964;105.830;2023-05-21T03:23:56;27.70;73.70
44435;DHT22;30138;20.964;105.830;2023-05-21T03:29:06;27.70;82.70
44435;DHT22;30138;20.964;105.830;2023-05-21T03:34:14;27.70;73.00
44435;DHT22;30138;20.964;105.830;2023-05-21T03:39:21;27.70;67.30
44435;DHT22;30138;20.964;105.830;2023-05-21T03:44:30;27.70;78.60
44435;DHT22;30138;20.964;105.830;2023-05-21T03:49:51;27.80;82.70
44435;DHT22;30138;20.964;105.830;2023-05-21T03:54:59;27.70;69.50
44435;DHT22;30138;20.964;105.830;2023-05-21T04:00:08;27.70;75.00
44435;DHT22;30138;20.964;105.830;2023-05-21T04:05:18;27.80;83.70
44435;DHT22;30138;20.964;105.830;2023-05-21T04:10:25;27.80;74.70
44435;DHT22;30138;20.964;105.830;2023-05-21T04:15:33;27.80;64.50
44435;DHT22;30138;20.964;105.830;2023-05-21T04:20:40;27.70;75.30
44435;DHT22;30138;20.964;105.830;2023-05-21T04:25:47;27.80;83.50
44435;DHT22;30138;20.964;105.830;2023-05-21T04:30:56;27.90;71.70
44435;DHT22;30138;20.964;105.830;2023-05-21T04:36:02;27.70;63.90
44435;DHT22;30138;20.964;105.830;2023-05-21T04:41:13;27.70;73.50
44435;DHT22;30138;20.964;105.830;2023-05-21T04:46:22;27.80;77.20
44435;DHT22;30138;20.964;105.830;2023-05-21T04:51:29;27.80;66.40
44435;DHT22;30138;20.964;105.830;2023-05-21T04:56:37;27.70;61.20
44435;DHT22;30138;20.964;105.830;2023-05-21T05:01:46;27.70;72.80
44435;DHT22;30138;20.964;105.830;2023-05-21T05:06:52;27.70;72.50
44435;DHT22;30138;20.964;105.830;2023-05-21T05:11:59;27.70;64.70
44435;DHT22;30138;20.964;105.830;2023-05-21T05:17:07;27.60;62.30
44435;DHT22;30138;20.964;105.830;2023-05-21T05:22:19;27.50;59.00
44435;DHT22;30138;20.964;105.830;2023-05-21T05:27:27;27.40;56.50
44435;DHT22;30138;20.964;105.830;2023-05-21T05:32:36;27.40;54.90
44435;DHT22;30138;20.964;105.830;2023-05-21T05:37:43;27.30;65.20
44435;DHT22;30138;20.964;105.830;2023-05-21T05:42:50;27.50;71.50
44435;DHT22;30138;20.964;105.830;2023-05-21T05:47:59;27.50;64.20
44435;DHT22;30138;20.964;105.830;2023-05-21T05:53:07;27.40;58.50
44435;DHT22;30138;20.964;105.830;2023-05-21T05:58:15;27.30;56.00
44435;DHT22;30138;20.964;105.830;2023-05-21T06:03:46;27.20;54.30
44435;DHT22;30138;20.964;105.830;2023-05-21T06:08:54;27.30;67.20
44435;DHT22;30138;20.964;105.830;2023-05-21T06:14:01;27.40;70.70
44435;DHT22;30138;20.964;105.830;2023-05-21T06:19:10;27.40;63.00
44435;DHT22;30138;20.964;105.830;2023-05-21T06:24:16;27.50;74.00
44435;DHT22;30138;20.964;105.830;2023-05-21T06:29:22;27.60;65.60
44435;DHT22;30138;20.964;105.830;2023-05-21T06:34:31;27.50;59.40
44435;DHT22;30138;20.964;105.830;2023-05-21T06:39:38;27.40;56.10
44435;DHT22;30138;20.964;105.830;2023-05-21T06:44:45;27.40;54.30
44435;DHT22;30138;20.964;105.830;2023-05-21T06:50:07;27.30;52.80
44435;DHT22;30138;20.964;105.830;2023-05-21T06:55:13;27.20;51.80
44435;DHT22;30138;20.964;105.830;2023-05-21T07:00:38;27.20;51.20
44435;DHT22;30138;20.964;105.830;2023-05-21T07:05:48;27.10;50.60
44435;DHT22;30138;20.964;105.830;2023-05-21T07:10:54;27.00;50.00
44435;DHT22;30138;20.964;105.830;2023-05-21T07:16:01;27.00;49.70
44435;DHT22;30138;20.964;105.830;2023-05-21T07:27:13;27.00;63.10
44435;DHT22;30138;20.964;105.830;2023-05-21T07:32:20;27.20;68.40
44435;DHT22;30138;20.964;105.830;2023-05-21T07:37:29;27.20;59.60
44435;DHT22;30138;20.964;105.830;2023-05-21T07:42:40;27.30;56.00
44435;DHT22;30138;20.964;105.830;2023-05-21T07:47:48;27.20;53.50
44435;DHT22;30138;20.964;105.830;2023-05-21T07:52:55;27.20;52.00
44435;DHT22;30138;20.964;105.830;2023-05-21T07:58:08;27.10;51.00
44435;DHT22;30138;20.964;105.830;2023-05-21T08:03:16;27.10;50.40
44435;DHT22;30138;20.964;105.830;2023-05-21T08:08:22;27.00;49.80
44435;DHT22;30138;20.964;105.830;2023-05-21T08:13:34;27.00;49.40
44435;DHT22;30138;20.964;105.830;2023-05-21T08:18:43;27.00;49.10
44435;DHT22;30138;20.964;105.830;2023-05-21T08:23:52;26.90;48.80
44435;DHT22;30138;20.964;105.830;2023-05-21T08:29:02;26.90;48.60
44435;DHT22;30138;20.964;105.830;2023-05-21T08:34:11;26.80;48.50
44435;DHT22;30138;20.964;105.830;2023-05-21T08:39:25;26.80;48.30
44435;DHT22;30138;20.964;105.830;2023-05-21T08:44:33;26.80;48.20
44435;DHT22;30138;20.964;105.830;2023-05-21T08:49:40;26.80;57.30
44435;DHT22;30138;20.964;105.830;2023-05-21T08:54:49;27.10;68.30
44435;DHT22;30138;20.964;105.830;2023-05-21T08:59:58;27.20;64.60
44435;DHT22;30138;20.964;105.830;2023-05-21T09:05:09;27.20;57.50
44435;DHT22;30138;20.964;105.830;2023-05-21T09:10:18;27.20;54.10
44435;DHT22;30138;20.964;105.830;2023-05-21T09:15:30;27.10;52.10
44435;DHT22;30138;20.964;105.830;2023-05-21T09:20:37;27.10;50.80
44435;DHT22;30138;20.964;105.830;2023-05-21T09:25:54;27.10;50.00
44435;DHT22;30138;20.964;105.830;2023-05-21T09:31:08;27.00;49.30
44435;DHT22;30138;20.964;105.830;2023-05-21T09:36:16;27.00;48.90
44435;DHT22;30138;20.964;105.830;2023-05-21T09:41:31;26.90;48.60
44435;DHT22;30138;20.964;105.830;2023-05-21T09:46:41;26.90;48.40
44435;DHT22;30138;20.964;105.830;2023-05-21T09:51:47;26.80;48.50
44435;DHT22;30138;20.964;105.830;2023-05-21T09:56:54;26.80;48.50
44435;DHT22;30138;20.964;105.830;2023-05-21T10:02:02;26.80;55.40
44435;DHT22;30138;20.964;105.830;2023-05-21T10:07:08;26.90;55.70
44435;DHT22;30138;20.964;105.830;2023-05-21T10:12:17;26.90;52.80
44435;DHT22;30138;20.964;105.830;2023-05-21T10:17:27;26.80;51.00
44435;DHT22;30138;20.964;105.830;2023-05-21T10:22:34;26.80;49.80
44435;DHT22;30138;20.964;105.830;2023-05-21T10:27:41;26.80;49.70
44435;DHT22;30138;20.964;105.830;2023-05-21T10:32:50;26.90;61.00
44435;DHT22;30138;20.964;105.830;2023-05-21T10:37:57;27.10;67.70
44435;DHT22;30138;20.964;105.830;2023-05-21T10:43:33;27.20;58.80
44435;DHT22;30138;20.964;105.830;2023-05-21T10:49:20;27.10;55.40
44435;DHT22;30138;20.964;105.830;2023-05-21T10:54:55;27.10;53.90
44435;DHT22;30138;20.964;105.830;2023-05-21T11:00:14;27.10;58.00
44435;DHT22;30138;20.964;105.830;2023-05-21T11:05:51;27.20;70.30
44435;DHT22;30138;20.964;105.830;2023-05-21T11:10:59;27.40;62.70
44435;DHT22;30138;20.964;105.830;2023-05-21T11:16:06;27.30;57.30
44435;DHT22;30138;20.964;105.830;2023-05-21T11:21:21;27.30;60.10
44435;DHT22;30138;20.964;105.830;2023-05-21T11:27:04;27.40;68.10
44435;DHT22;30138;20.964;105.830;2023-05-21T11:32:11;27.50;59.30
44435;DHT22;30138;20.964;105.830;2023-05-21T11:37:33;27.40;54.50
44435;DHT22;30138;20.964;105.830;2023-05-21T11:42:44;27.40;59.40
44435;DHT22;30138;20.964;105.830;2023-05-21T11:47:53;27.50;65.40
44435;DHT22;30138;20.964;105.830;2023-05-21T11:53:02;27.50;58.60
44435;DHT22;30138;20.964;105.830;2023-05-21T11:58:12;27.40;54.30
44435;DHT22;30138;20.964;105.830;2023-05-21T12:03:22;27.30;53.00
44435;DHT22;30138;20.964;105.830;2023-05-21T12:08:34;27.20;52.10
44435;DHT22;30138;20.964;105.830;2023-05-21T12:13:44;27.20;50.70
44435;DHT22;30138;20.964;105.830;2023-05-21T12:18:53;27.10;49.60
44435;DHT22;30138;20.964;105.830;2023-05-21T12:24:02;27.00;48.90
44435;DHT22;30138;20.964;105.830;2023-05-21T12:29:11;27.00;48.20
44435;DHT22;30138;20.964;105.830;2023-05-21T12:34:39;26.90;49.00
44435;DHT22;30138;20.964;105.830;2023-05-21T12:39:48;26.80;48.30
44435;DHT22;30138;20.964;105.830;2023-05-21T12:44:55;26.80;47.50
44435;DHT22;30138;20.964;105.830;2023-05-21T12:50:02;26.70;47.00
44435;DHT22;30138;20.964;105.830;2023-05-21T12:55:16;26.60;46.60
44435;DHT22;30138;20.964;105.830;2023-05-21T13:00:23;26.60;46.40
44435;DHT22;30138;20.964;105.830;2023-05-21T13:05:30;26.50;46.20
44435;DHT22;30138;20.964;105.830;2023-05-21T13:10:38;26.40;45.90
44435;DHT22;30138;20.964;105.830;2023-05-21T13:15:45;26.40;45.80
44435;DHT22;30138;20.964;105.830;2023-05-21T13:20:51;26.30;45.60
44435;DHT22;30138;20.964;105.830;2023-05-21T13:26:00;26.30;45.50
44435;DHT22;30138;20.964;105.830;2023-05-21T13:31:06;26.30;45.40
44435;DHT22;30138;20.964;105.830;2023-05-21T13:36:14;26.20;45.30
44435;DHT22;30138;20.964;105.830;2023-05-21T13:41:22;26.20;53.70
44435;DHT22;30138;20.964;105.830;2023-05-21T13:46:29;26.30;61.20
44435;DHT22;30138;20.964;105.830;2023-05-21T13:51:41;26.50;65.70
44435;DHT22;30138;20.964;105.830;2023-05-21T13:56:50;26.60;67.90
44435;DHT22;30138;20.964;105.830;2023-05-21T14:01:56;26.70;68.80
44435;DHT22;30138;20.964;105.830;2023-05-21T14:07:04;26.80;69.50
44435;DHT22;30138;20.964;105.830;2023-05-21T14:12:14;26.80;70.60
44435;DHT22;30138;20.964;105.830;2023-05-21T14:17:22;26.80;64.50
44435;DHT22;30138;20.964;105.830;2023-05-21T14:22:31;26.80;59.00
44435;DHT22;30138;20.964;105.830;2023-05-21T14:27:40;26.80;65.50
44435;DHT22;30138;20.964;105.830;2023-05-21T14:32:47;26.80;59.80
44435;DHT22;30138;20.964;105.830;2023-05-21T14:37:54;26.70;56.30
44435;DHT22;30138;20.964;105.830;2023-05-21T14:43:05;26.70;56.50
44435;DHT22;30138;20.964;105.830;2023-05-21T14:48:11;26.70;58.80
44435;DHT22;30138;20.964;105.830;2023-05-21T14:53:18;26.70;57.10
44435;DHT22;30138;20.964;105.830;2023-05-21T14:58:27;26.60;55.10
44435;DHT22;30138;20.964;105.830;2023-05-21T15:03:34;26.60;53.30
44435;DHT22;30138;20.964;105.830;2023-05-21T15:08:41;26.50;51.40
44435;DHT22;30138;20.964;105.830;2023-05-21T15:13:50;26.50;50.40
44435;DHT22;30138;20.964;105.830;2023-05-21T15:18:56;26.40;49.50
44435;DHT22;30138;20.964;105.830;2023-05-21T15:24:06;26.30;48.90
44435;DHT22;30138;20.964;105.830;2023-05-21T15:29:16;26.30;48.60
44435;DHT22;30138;20.964;105.830;2023-05-21T15:34:26;26.20;48.30
44435;DHT22;30138;20.964;105.830;2023-05-21T15:39:32;26.20;48.00
44435;DHT22;30138;20.964;105.830;2023-05-21T15:44:41;26.20;47.80
44435;DHT22;30138;20.964;105.830;2023-05-21T15:49:48;26.10;47.50
44435;DHT22;30138;20.964;105.830;2023-05-21T15:54:56;26.10;47.30
44435;DHT22;30138;20.964;105.830;2023-05-21T16:00:06;26.00;47.10
44435;DHT22;30138;20.964;105.830;2023-05-21T16:05:14;25.90;47.00
44435;DHT22;30138;20.964;105.830;2023-05-21T16:10:21;25.90;49.90
44435;DHT22;30138;20.964;105.830;2023-05-21T16:15:31;26.00;55.00
44435;DHT22;30138;20.964;105.830;2023-05-21T16:20:38;25.90;51.70
44435;DHT22;30138;20.964;105.830;2023-05-21T16:25:45;25.90;49.70
44435;DHT22;30138;20.964;105.830;2023-05-21T16:30:54;25.90;48.50
44435;DHT22;30138;20.964;105.830;2023-05-21T16:36:01;25.80;47.80
44435;DHT22;30138;20.964;105.830;2023-05-21T16:41:08;26.10;50.60
44435;DHT22;30138;20.964;105.830;2023-05-21T16:46:18;26.50;53.20
44435;DHT22;30138;20.964;105.830;2023-05-21T16:51:24;26.90;55.00
44435;DHT22;30138;20.964;105.830;2023-05-21T16:56:31;27.20;56.40
44435;DHT22;30138;20.964;105.830;2023-05-21T17:01:43;27.50;58.10
44435;DHT22;30138;20.964;105.830;2023-05-21T17:06:51;27.80;59.30
44435;DHT22;30138;20.964;105.830;2023-05-21T17:11:57;28.00;60.20
44435;DHT22;30138;20.964;105.830;2023-05-21T17:17:05;28.20;61.30
44435;DHT22;30138;20.964;105.830;2023-05-21T17:22:12;28.40;62.10
44435;DHT22;30138;20.964;105.830;2023-05-21T17:27:18;28.50;62.50
44435;DHT22;30138;20.964;105.830;2023-05-21T17:32:28;28.50;55.50
44435;DHT22;30138;20.964;105.830;2023-05-21T17:37:36;28.30;51.20
44435;DHT22;30138;20.964;105.830;2023-05-21T17:42:42;28.10;48.50
44435;DHT22;30138;20.964;105.830;2023-05-21T17:47:51;28.00;47.00
44435;DHT22;30138;20.964;105.830;2023-05-21T17:53:00;27.80;46.00
44435;DHT22;30138;20.964;105.830;2023-05-21T17:58:06;27.70;45.90
44435;DHT22;30138;20.964;105.830;2023-05-21T18:03:15;27.60;53.20
44435;DHT22;30138;20.964;105.830;2023-05-21T18:08:21;27.60;50.50
44435;DHT22;30138;20.964;105.830;2023-05-21T18:13:28;27.60;54.20
44435;DHT22;30138;20.964;105.830;2023-05-21T18:18:37;27.50;53.00
44435;DHT22;30138;20.964;105.830;2023-05-21T18:23:43;27.50;53.90
44435;DHT22;30138;20.964;105.830;2023-05-21T18:28:50;27.40;55.50
44435;DHT22;30138;20.964;105.830;2023-05-21T18:33:58;27.40;55.10
44435;DHT22;30138;20.964;105.830;2023-05-21T18:39:05;27.40;56.70
44435;DHT22;30138;20.964;105.830;2023-05-21T18:44:12;27.50;55.50
44435;DHT22;30138;20.964;105.830;2023-05-21T18:49:21;27.40;57.50
44435;DHT22;30138;20.964;105.830;2023-05-21T18:54:27;27.50;55.60
44435;DHT22;30138;20.964;105.830;2023-05-21T18:59:33;27.40;58.30
44435;DHT22;30138;20.964;105.830;2023-05-21T19:04:42;27.40;55.40
44435;DHT22;30138;20.964;105.830;2023-05-21T19:09:48;27.40;58.90
44435;DHT22;30138;20.964;105.830;2023-05-21T19:14:56;27.40;55.50
44435;DHT22;30138;20.964;105.830;2023-05-21T19:20:04;27.30;59.10
44435;DHT22;30138;20.964;105.830;2023-05-21T19:25:12;27.40;55.20
44435;DHT22;30138;20.964;105.830;2023-05-21T19:30:18;27.40;58.10
44435;DHT22;30138;20.964;105.830;2023-05-21T19:35:26;27.40;53.80
44435;DHT22;30138;20.964;105.830;2023-05-21T19:40:34;27.30;56.50
44435;DHT22;30138;20.964;105.830;2023-05-21T19:45:41;27.30;54.70
44435;DHT22;30138;20.964;105.830;2023-05-21T19:50:49;27.30;57.50
44435;DHT22;30138;20.964;105.830;2023-05-21T19:55:55;27.20;54.80
44435;DHT22;30138;20.964;105.830;2023-05-21T20:01:01;27.30;57.10
44435;DHT22;30138;20.964;105.830;2023-05-21T20:06:10;27.50;58.50
44435;DHT22;30138;20.964;105.830;2023-05-21T20:11:20;27.80;59.60
44435;DHT22;30138;20.964;105.830;2023-05-21T20:16:26;28.00;60.60
44435;DHT22;30138;20.964;105.830;2023-05-21T20:21:34;28.20;61.50
44435;DHT22;30138;20.964;105.830;2023-05-21T20:26:40;28.30;62.30
44435;DHT22;30138;20.964;105.830;2023-05-21T20:31:48;28.40;63.00
44435;DHT22;30138;20.964;105.830;2023-05-21T20:36:56;28.60;63.80
44435;DHT22;30138;20.964;105.830;2023-05-21T20:42:04;28.70;64.50
44435;DHT22;30138;20.964;105.830;2023-05-21T20:47:12;28.80;65.10
44435;DHT22;30138;20.964;105.830;2023-05-21T20:52:20;28.90;65.70
44435;DHT22;30138;20.964;105.830;2023-05-21T20:57:27;29.00;66.30
44435;DHT22;30138;20.964;105.830;2023-05-21T21:02:33;29.00;66.80
44435;DHT22;30138;20.964;105.830;2023-05-21T21:07:41;29.10;67.30
44435;DHT22;30138;20.964;105.830;2023-05-21T21:12:48;29.20;67.80
44435;DHT22;30138;20.964;105.830;2023-05-21T21:17:56;29.30;68.30
44435;DHT22;30138;20.964;105.830;2023-05-21T21:23:06;29.30;68.70
44435;DHT22;30138;20.964;105.830;2023-05-21T21:28:13;29.30;69.10
44435;DHT22;30138;20.964;105.830;2023-05-21T21:33:20;29.50;69.60
44435;DHT22;30138;20.964;105.830;2023-05-21T21:38:30;29.50;70.00
44435;DHT22;30138;20.964;105.830;2023-05-21T21:43:36;29.60;70.40
44435;DHT22;30138;20.964;105.830;2023-05-21T21:48:43;29.60;70.70
44435;DHT22;30138;20.964;105.830;2023-05-21T21:53:53;29.70;70.90
44435;DHT22;30138;20.964;105.830;2023-05-21T21:58:59;29.70;71.20
44435;DHT22;30138;20.964;105.830;2023-05-21T22:04:06;29.80;71.40
44435;DHT22;30138;20.964;105.830;2023-05-21T22:09:15;29.80;71.80
44435;DHT22;30138;20.964;105.830;2023-05-21T22:14:23;29.90;72.20
44435;DHT22;30138;20.964;105.830;2023-05-21T22:19:29;29.90;72.60
44435;DHT22;30138;20.964;105.830;2023-05-21T22:24:38;29.90;72.90
44435;DHT22;30138;20.964;105.830;2023-05-21T22:29:44;30.00;73.10
44435;DHT22;30138;20.964;105.830;2023-05-21T22:34:51;30.00;73.50
44435;DHT22;30138;20.964;105.830;2023-05-21T22:40:00;30.00;73.70
44435;DHT22;30138;20.964;105.830;2023-05-21T22:45:08;30.00;74.00
44435;DHT22;30138;20.964;105.830;2023-05-21T22:50:15;30.10;74.30
44435;DHT22;30138;20.964;105.830;2023-05-21T22:55:23;30.10;74.70
44435;DHT22;30138;20.964;105.830;2023-05-21T23:00:30;30.10;75.00
44435;DHT22;30138;20.964;105.830;2023-05-21T23:05:37;30.10;75.20
44435;DHT22;30138;20.964;105.830;2023-05-21T23:10:45;30.20;75.60
44435;DHT22;30138;20.964;105.830;2023-05-21T23:15:51;30.20;75.80
44435;DHT22;30138;20.964;105.830;2023-05-21T23:21:00;30.30;76.10
44435;DHT22;30138;20.964;105.830;2023-05-21T23:26:08;30.30;76.30
44435;DHT22;30138;20.964;105.830;2023-05-21T23:31:15;30.30;76.40
44435;DHT22;30138;20.964;105.830;2023-05-21T23:36:21;30.30;76.50
44435;DHT22;30138;20.964;105.830;2023-05-21T23:41:29;30.40;76.60
44435;DHT22;30138;20.964;105.830;2023-05-21T23:46:36;30.40;76.80
44435;DHT22;30138;20.964;105.830;2023-05-21T23:51:43;30.50;77.10
44435;DHT22;30138;20.964;105.830;2023-05-21T23:56:55;30.50;77.30
